createdAt,value
2017-07-07T00:06:53.000Z,45.571
2017-07-07T00:26:53.000Z,45.828
2017-07-07T00:36:53.000Z,45.869
2017-07-07T00:46:53.000Z,45.955
2017-07-07T00:56:53.000Z,45.942
2017-07-07T01:06:53.000Z,46.026
2017-07-07T01:16:53.000Z,46.112
2017-07-07T01:26:53.000Z,46.14
2017-07-07T01:36:53.000Z,46.106
2017-07-07T01:46:53.000Z,46.19
2017-07-07T01:56:53.000Z,46.219
2017-07-07T02:06:53.000Z,46.423
2017-07-07T02:16:53.000Z,46.499
2017-07-07T02:26:53.000Z,46.551
2017-07-07T02:36:53.000Z,46.583
2017-07-07T02:46:53.000Z,46.722
2017-07-07T02:56:53.000Z,46.744
2017-07-07T03:06:53.000Z,46.886
2017-07-07T03:16:53.000Z,46.96
2017-07-07T03:26:53.000Z,47.056
2017-07-07T03:36:53.000Z,47.1
2017-07-07T03:46:53.000Z,47.261
2017-07-07T03:56:53.000Z,47.313
2017-07-07T04:06:53.000Z,47.477
2017-07-07T04:16:53.000Z,47.627
2017-07-07T04:26:53.000Z,47.782
2017-07-07T04:36:53.000Z,47.617
2017-07-07T04:46:53.000Z,47.282
2017-07-07T04:56:53.000Z,47.111
2017-07-07T05:06:54.000Z,47.069
2017-07-07T05:16:54.000Z,46.863
2017-07-07T05:26:54.000Z,47.63
2017-07-07T05:36:54.000Z,47.991
2017-07-07T05:46:54.000Z,47.786
2017-07-07T05:56:54.000Z,48.198
2017-07-07T06:06:54.000Z,47.598
2017-07-07T06:16:54.000Z,47.43
2017-07-07T06:26:54.000Z,47.664
2017-07-07T06:36:54.000Z,48.285
2017-07-07T06:46:54.000Z,48.787
2017-07-07T06:56:54.000Z,50.112
2017-07-07T07:06:54.000Z,50.262
2017-07-07T07:16:54.000Z,52.325
2017-07-07T07:26:54.000Z,56.091
2017-07-07T07:36:54.000Z,52.753
2017-07-07T07:46:54.000Z,53.036
2017-07-07T07:56:54.000Z,52.235
2017-07-07T08:06:54.000Z,50.864
2017-07-07T08:16:54.000Z,51.431
2017-07-07T08:26:54.000Z,50.763
2017-07-07T08:36:54.000Z,49.983
2017-07-07T08:46:54.000Z,48.709
2017-07-07T08:56:54.000Z,48.511
2017-07-07T09:06:54.000Z,47.801
2017-07-07T09:16:54.000Z,47.103
2017-07-07T09:26:54.000Z,47.202
2017-07-07T09:36:54.000Z,46.878
2017-07-07T09:46:54.000Z,46.42
2017-07-07T09:56:54.000Z,46.214
2017-07-07T10:06:54.000Z,46.425
2017-07-07T10:16:54.000Z,45.918
2017-07-07T10:26:54.000Z,46.504
2017-07-07T10:36:54.000Z,46.442
2017-07-07T10:46:54.000Z,46.138
2017-07-07T10:56:54.000Z,45.703
2017-07-07T11:06:54.000Z,45.293
2017-07-07T11:16:54.000Z,45.055
2017-07-07T11:26:54.000Z,45.146
2017-07-07T11:36:54.000Z,44.445
2017-07-07T11:46:54.000Z,44.494
2017-07-07T11:56:54.000Z,44.386
2017-07-07T12:06:54.000Z,43.989
2017-07-07T12:16:54.000Z,44.051
2017-07-07T12:26:54.000Z,44.216
2017-07-07T12:36:54.000Z,43.877
2017-07-07T12:46:58.000Z,44.148
2017-07-07T12:56:54.000Z,44.112
2017-07-07T13:06:54.000Z,43.504
2017-07-07T13:16:55.000Z,42.96
2017-07-07T13:26:55.000Z,42.817
2017-07-07T13:36:55.000Z,42.857
2017-07-07T13:46:55.000Z,42.648
2017-07-07T13:56:55.000Z,42.526
2017-07-07T14:06:55.000Z,42.614
2017-07-07T14:16:55.000Z,42.187
2017-07-07T14:26:55.000Z,42.159
2017-07-07T14:36:55.000Z,42.404
2017-07-07T14:46:55.000Z,42.856
2017-07-07T14:56:55.000Z,42.712
2017-07-07T15:06:55.000Z,42.962
2017-07-07T15:16:55.000Z,43.254
2017-07-07T15:26:55.000Z,43.583
2017-07-07T15:46:55.000Z,44.29
2017-07-07T15:56:55.000Z,44.621
2017-07-07T16:06:55.000Z,44.688
2017-07-07T16:16:55.000Z,44.987
2017-07-07T16:26:55.000Z,44.794
2017-07-07T16:36:55.000Z,44.582
2017-07-07T16:46:55.000Z,44.501
2017-07-07T16:56:55.000Z,44.931
2017-07-07T17:06:55.000Z,45.175
2017-07-07T17:16:55.000Z,45.471
2017-07-07T17:26:55.000Z,45.493
2017-07-07T17:36:55.000Z,45.568
2017-07-07T17:46:55.000Z,45.489
2017-07-07T17:56:55.000Z,45.432
2017-07-07T18:06:58.000Z,45.626
2017-07-07T18:26:55.000Z,45.799
2017-07-07T18:36:55.000Z,45.755
2017-07-07T18:46:56.000Z,46.071
2017-07-07T18:56:55.000Z,46.179
2017-07-07T19:06:55.000Z,46.43
2017-07-07T19:16:56.000Z,46.591
2017-07-07T19:26:55.000Z,46.833
2017-07-07T19:36:55.000Z,46.8
2017-07-07T19:46:55.000Z,46.767
2017-07-07T19:56:55.000Z,46.907
2017-07-07T20:06:55.000Z,46.949
2017-07-07T20:16:55.000Z,47.142
2017-07-07T20:26:55.000Z,47.249
2017-07-07T20:36:55.000Z,47.428
2017-07-07T20:46:56.000Z,47.244
2017-07-07T20:56:55.000Z,47.317
2017-07-07T21:06:55.000Z,47.203
2017-07-07T21:16:55.000Z,47.232
2017-07-07T21:26:56.000Z,47.194
2017-07-07T21:36:56.000Z,47.29
2017-07-07T21:46:56.000Z,47.232
2017-07-07T21:56:56.000Z,47.348
2017-07-07T22:06:56.000Z,47.215
2017-07-07T22:16:56.000Z,48.715
2017-07-07T22:26:56.000Z,48.64
2017-07-07T22:36:56.000Z,49.246
2017-07-07T22:46:56.000Z,48.878
2017-07-07T22:56:56.000Z,49.152
2017-07-07T23:06:56.000Z,49.309
2017-07-07T23:16:56.000Z,49.267
2017-07-07T23:26:56.000Z,48.446
2017-07-07T23:36:56.000Z,48.077
2017-07-07T23:46:56.000Z,47.965
2017-07-07T23:56:56.000Z,47.877
